createdAt,value
2022-11-23T00:01:13.983Z,7.00
2022-11-23T00:03:42.062Z,7.00
2022-11-23T00:06:11.480Z,7.00
2022-11-23T00:08:39.549Z,7.00
2022-11-23T00:11:08.011Z,7.00
2022-11-23T00:13:36.271Z,7.00
2022-11-23T00:16:07.084Z,6.90
2022-11-23T00:18:35.286Z,6.90
2022-11-23T00:21:08.078Z,7.00
2022-11-23T00:23:38.449Z,6.90
2022-11-23T00:26:07.353Z,6.90
2022-11-23T00:28:38.789Z,7.00
2022-11-23T00:31:07.059Z,7.00
2022-11-23T00:33:35.298Z,7.00
2022-11-23T00:36:05.373Z,6.90
2022-11-23T00:38:33.746Z,6.90
2022-11-23T00:41:04.696Z,6.90
2022-11-23T00:43:33.302Z,6.90
2022-11-23T00:46:10.168Z,6.90
2022-11-23T00:48:38.761Z,6.90
2022-11-23T00:51:08.668Z,6.90
2022-11-23T00:53:37.281Z,6.90
2022-11-23T00:56:06.923Z,6.90
2022-11-23T00:58:37.434Z,6.90
2022-11-23T01:01:07.871Z,6.90
2022-11-23T01:03:36.847Z,6.90
2022-11-23T01:06:07.034Z,6.90
2022-11-23T01:08:35.097Z,6.90
2022-11-23T01:11:04.697Z,6.80
2022-11-23T01:13:34.532Z,6.80
2022-11-23T01:16:02.635Z,6.90
2022-11-23T01:18:30.721Z,6.90
2022-11-23T01:20:59.014Z,6.90
2022-11-23T01:23:29.341Z,6.90
2022-11-23T01:25:57.496Z,6.90
2022-11-23T01:28:25.822Z,7.00
2022-11-23T01:30:55.187Z,7.00
2022-11-23T01:33:23.230Z,7.00
2022-11-23T01:35:51.226Z,7.00
2022-11-23T01:38:19.250Z,7.00
2022-11-23T01:40:47.232Z,6.90
2022-11-23T01:43:16.884Z,6.90
2022-11-23T01:45:46.422Z,6.90
2022-11-23T01:48:20.917Z,6.90
2022-11-23T01:50:52.722Z,7.00
2022-11-23T01:53:21.721Z,6.90
2022-11-23T01:55:50.700Z,6.90
2022-11-23T01:58:21.917Z,7.00
2022-11-23T02:00:50.810Z,7.00
2022-11-23T02:03:20.351Z,7.00
2022-11-23T02:05:52.171Z,7.00
2022-11-23T02:08:21.250Z,7.00
2022-11-23T02:10:49.415Z,7.00
2022-11-23T02:13:17.528Z,7.00
2022-11-23T02:15:45.692Z,7.00
2022-11-23T02:18:17.902Z,7.00
2022-11-23T02:20:47.814Z,7.00
2022-11-23T02:23:30.326Z,7.00
2022-11-23T02:26:03.562Z,7.00
2022-11-23T02:28:36.559Z,7.00
2022-11-23T02:31:05.010Z,7.00
2022-11-23T02:33:33.166Z,7.00
2022-11-23T02:36:02.859Z,7.00
2022-11-23T02:38:34.297Z,6.90
2022-11-23T02:41:03.672Z,6.90
2022-11-23T02:43:31.878Z,7.00
2022-11-23T02:46:03.133Z,7.00
2022-11-23T02:48:31.135Z,7.00
2022-11-23T02:50:59.164Z,7.00
2022-11-23T02:53:27.185Z,7.00
2022-11-23T02:55:55.223Z,7.00
2022-11-23T02:58:24.589Z,7.00
2022-11-23T03:00:52.653Z,6.90
2022-11-23T03:03:20.674Z,6.90
2022-11-23T03:05:48.712Z,6.90
2022-11-23T03:08:16.730Z,6.90
2022-11-23T03:10:45.869Z,6.90
2022-11-23T03:13:13.983Z,6.90
2022-11-23T03:15:43.376Z,6.90
2022-11-23T03:18:11.381Z,6.90
2022-11-23T03:20:39.404Z,6.90
2022-11-23T03:23:07.390Z,6.90
2022-11-23T03:25:35.445Z,6.90
2022-11-23T03:28:03.423Z,6.90
2022-11-23T03:30:32.047Z,6.90
2022-11-23T03:33:01.398Z,6.80
2022-11-23T03:35:29.463Z,6.80
2022-11-23T03:37:57.463Z,6.90
2022-11-23T03:40:25.496Z,6.90
2022-11-23T03:42:53.513Z,6.90
2022-11-23T03:45:21.530Z,7.00
2022-11-23T03:47:49.507Z,7.00
2022-11-23T03:50:18.935Z,7.00
2022-11-23T03:52:49.227Z,7.00
2022-11-23T03:55:17.532Z,7.00
2022-11-23T03:57:45.670Z,7.00
2022-11-23T04:00:15.150Z,7.00
2022-11-23T04:02:43.169Z,7.00
2022-11-23T04:05:11.485Z,7.00
2022-11-23T04:07:40.969Z,7.00
2022-11-23T04:10:10.390Z,7.00
2022-11-23T04:12:38.377Z,6.90
2022-11-23T04:15:07.248Z,6.90
2022-11-23T04:17:35.249Z,6.90
2022-11-23T04:20:03.294Z,6.90
2022-11-23T04:22:31.403Z,6.90
2022-11-23T04:25:00.805Z,6.90
2022-11-23T04:27:28.855Z,6.90
2022-11-23T04:29:56.852Z,6.90
2022-11-23T04:32:24.891Z,6.90
2022-11-23T04:34:52.905Z,6.90
2022-11-23T04:37:20.928Z,7.00
2022-11-23T04:39:48.954Z,6.90
2022-11-23T04:42:18.336Z,6.90
2022-11-23T04:44:46.992Z,7.00
2022-11-23T04:47:15.130Z,6.90
2022-11-23T04:49:43.112Z,6.90
2022-11-23T04:52:11.200Z,6.90
2022-11-23T04:54:39.233Z,6.80
2022-11-23T04:57:07.275Z,6.80
2022-11-23T04:59:36.793Z,6.90
2022-11-23T05:02:04.922Z,6.80
2022-11-23T05:04:34.318Z,6.80
2022-11-23T05:07:02.395Z,6.80
2022-11-23T05:09:30.984Z,6.90
2022-11-23T05:11:59.420Z,6.90
2022-11-23T05:14:27.414Z,6.80
2022-11-23T05:16:56.804Z,6.90
2022-11-23T05:19:24.793Z,6.90
2022-11-23T05:21:52.825Z,6.80
2022-11-23T05:24:20.984Z,6.90
2022-11-23T05:26:52.047Z,6.80
2022-11-23T05:29:24.018Z,6.80
2022-11-23T05:31:52.193Z,6.80
2022-11-23T05:34:21.625Z,6.80
2022-11-23T05:36:49.713Z,6.80
2022-11-23T05:39:17.764Z,6.80
2022-11-23T05:41:45.792Z,6.80
2022-11-23T05:44:13.890Z,6.80
2022-11-23T05:46:41.991Z,6.80
2022-11-23T05:49:11.005Z,6.80
2022-11-23T05:51:40.431Z,6.80
2022-11-23T05:54:08.489Z,6.90
2022-11-23T05:56:40.185Z,6.80
2022-11-23T05:59:08.712Z,6.80
2022-11-23T06:01:36.772Z,6.90
2022-11-23T06:04:06.831Z,6.90
2022-11-23T06:06:35.025Z,6.80
2022-11-23T06:09:04.733Z,6.90
2022-11-23T06:11:32.751Z,6.90
2022-11-23T06:14:00.798Z,6.90
2022-11-23T06:16:29.019Z,6.90
2022-11-23T06:18:57.067Z,6.90
2022-11-23T06:21:25.089Z,6.90
2022-11-23T06:23:53.210Z,6.90
2022-11-23T06:26:22.572Z,6.90
2022-11-23T06:28:50.707Z,6.90
2022-11-23T06:31:19.000Z,6.90
2022-11-23T06:33:47.022Z,6.80
2022-11-23T06:36:15.825Z,6.80
2022-11-23T06:38:43.838Z,6.90
2022-11-23T06:41:12.021Z,6.90
2022-11-23T06:43:41.593Z,6.80
2022-11-23T06:46:10.149Z,6.90
2022-11-23T06:48:38.185Z,6.90
2022-11-23T06:51:06.377Z,6.80
2022-11-23T06:53:34.426Z,6.90
2022-11-23T06:56:02.650Z,6.90
2022-11-23T06:58:30.889Z,6.90
2022-11-23T07:01:03.560Z,6.90
2022-11-23T07:03:31.962Z,6.90
2022-11-23T07:06:00.357Z,6.90
2022-11-23T07:08:28.892Z,6.90
2022-11-23T07:11:01.418Z,6.90
2022-11-23T07:13:29.511Z,7.00
2022-11-23T07:15:59.653Z,7.00
2022-11-23T07:18:29.057Z,7.00
2022-11-23T07:20:59.435Z,7.10
2022-11-23T07:23:27.693Z,7.00
2022-11-23T07:25:55.711Z,7.00
2022-11-23T07:28:23.854Z,6.90
2022-11-23T07:30:52.882Z,7.00
2022-11-23T07:33:20.925Z,7.00
2022-11-23T07:35:50.352Z,7.00
2022-11-23T07:38:18.573Z,7.00
2022-11-23T07:40:50.673Z,7.00
2022-11-23T07:43:18.817Z,7.00
2022-11-23T07:45:46.939Z,7.10
2022-11-23T07:48:15.045Z,7.00
2022-11-23T07:50:43.055Z,7.10
2022-11-23T07:53:12.619Z,7.10
2022-11-23T07:55:40.594Z,7.20
2022-11-23T07:58:08.614Z,7.20
2022-11-23T08:00:36.702Z,7.20
2022-11-23T08:03:26.648Z,7.20
2022-11-23T08:05:53.418Z,7.20
2022-11-23T08:08:23.007Z,7.20
2022-11-23T08:10:53.943Z,7.20
2022-11-23T08:13:22.878Z,7.20
2022-11-23T08:15:55.266Z,7.20
2022-11-23T08:18:24.619Z,7.20
2022-11-23T08:20:52.784Z,7.20
2022-11-23T08:23:22.790Z,7.20
2022-11-23T08:25:50.879Z,7.20
2022-11-23T08:28:19.195Z,7.20
2022-11-23T08:30:47.798Z,7.20
2022-11-23T08:33:16.421Z,7.20
2022-11-23T08:35:44.933Z,7.20
2022-11-23T08:38:14.233Z,7.30
2022-11-23T08:40:43.716Z,7.30
2022-11-23T08:43:11.834Z,7.30
2022-11-23T08:45:39.922Z,7.30
2022-11-23T08:48:08.913Z,7.40
2022-11-23T08:50:37.232Z,7.40
2022-11-23T08:53:05.685Z,7.40
2022-11-23T08:55:33.728Z,7.50
2022-11-23T08:58:03.269Z,7.50
2022-11-23T09:00:31.450Z,7.40
2022-11-23T09:03:00.102Z,7.50
2022-11-23T09:05:28.852Z,7.50
2022-11-23T09:07:57.300Z,7.50
2022-11-23T09:10:25.314Z,7.60
2022-11-23T09:12:53.373Z,7.50
2022-11-23T09:15:23.072Z,7.50
2022-11-23T09:17:51.294Z,7.60
2022-11-23T09:20:19.523Z,7.70
2022-11-23T09:22:53.203Z,7.80
2022-11-23T09:25:22.172Z,7.80
2022-11-23T09:27:50.930Z,7.80
2022-11-23T09:30:19.291Z,7.90
2022-11-23T09:32:48.902Z,7.80
2022-11-23T09:35:17.078Z,7.80
2022-11-23T09:37:45.174Z,7.90
2022-11-23T09:40:17.721Z,7.80
2022-11-23T09:43:06.763Z,7.90
2022-11-23T09:45:41.633Z,7.90
2022-11-23T09:48:30.040Z,7.90
2022-11-23T09:51:02.473Z,7.90
2022-11-23T09:53:35.909Z,7.90
2022-11-23T09:56:04.110Z,8.00
2022-11-23T09:58:37.641Z,8.00
2022-11-23T10:01:08.638Z,8.00
2022-11-23T10:03:45.368Z,8.00
2022-11-23T10:06:20.950Z,8.10
2022-11-23T10:08:59.568Z,8.20
2022-11-23T10:11:42.126Z,8.10
2022-11-23T10:14:24.933Z,8.10
2022-11-23T10:17:00.244Z,8.00
2022-11-23T10:19:40.645Z,8.10
2022-11-23T10:22:17.557Z,8.10
2022-11-23T10:24:50.223Z,8.10
2022-11-23T10:27:20.766Z,8.10
2022-11-23T10:29:50.128Z,8.10
2022-11-23T10:32:27.455Z,8.20
2022-11-23T10:35:05.224Z,8.20
2022-11-23T10:37:34.370Z,8.20
2022-11-23T10:40:02.579Z,8.10
2022-11-23T10:42:35.018Z,8.10
2022-11-23T10:45:04.648Z,8.00
2022-11-23T10:47:39.837Z,8.00
2022-11-23T10:50:26.108Z,8.00
2022-11-23T10:52:56.924Z,8.10
2022-11-23T10:55:31.401Z,8.20
2022-11-23T10:57:59.924Z,8.30
2022-11-23T11:00:31.287Z,8.40
2022-11-23T11:03:03.261Z,8.40
2022-11-23T11:08:26.555Z,8.60
2022-11-23T11:11:00.603Z,8.60
2022-11-23T11:13:31.784Z,8.60
2022-11-23T11:16:02.306Z,8.50
2022-11-23T11:18:33.497Z,8.40
2022-11-23T11:21:05.754Z,8.40
2022-11-23T11:23:35.828Z,8.50
2022-11-23T11:26:07.147Z,8.50
2022-11-23T11:28:38.515Z,8.60
2022-11-23T11:31:24.403Z,8.60
2022-11-23T11:33:58.052Z,8.80
2022-11-23T11:36:31.325Z,8.80
2022-11-23T11:39:19.732Z,8.80
2022-11-23T11:41:50.329Z,8.80
2022-11-23T11:44:22.024Z,8.90
2022-11-23T11:46:55.573Z,8.90
2022-11-23T11:49:27.870Z,8.90
2022-11-23T11:52:05.427Z,8.90
2022-11-23T11:54:42.288Z,8.80
2022-11-23T11:57:21.064Z,8.80
2022-11-23T11:59:52.867Z,8.70
2022-11-23T12:02:24.912Z,8.70
2022-11-23T12:05:04.169Z,8.70
2022-11-23T12:07:37.395Z,8.80
2022-11-23T12:10:14.072Z,8.80
2022-11-23T12:12:42.790Z,8.90
2022-11-23T12:15:47.861Z,8.90
2022-11-23T12:18:47.903Z,8.90
2022-11-23T12:21:48.021Z,8.90
2022-11-23T12:24:27.341Z,8.90
2022-11-23T12:27:05.814Z,8.90
2022-11-23T12:29:45.646Z,8.90
2022-11-23T12:32:24.666Z,8.90
2022-11-23T12:35:13.885Z,8.90
2022-11-23T12:37:55.441Z,8.80
2022-11-23T12:40:47.917Z,8.80
2022-11-23T12:43:23.499Z,8.70
2022-11-23T12:46:20.740Z,8.80
2022-11-23T12:49:02.317Z,8.70
2022-11-23T12:51:40.935Z,8.70
2022-11-23T12:54:22.416Z,8.80
2022-11-23T12:57:11.198Z,8.80
2022-11-23T12:59:44.952Z,8.90
2022-11-23T13:02:36.798Z,8.80
2022-11-23T13:05:41.618Z,8.90
2022-11-23T13:08:47.142Z,8.90
2022-11-23T13:11:26.355Z,8.90
2022-11-23T13:14:08.890Z,8.90
2022-11-23T13:17:06.910Z,9.00
2022-11-23T13:19:58.340Z,9.00
2022-11-23T13:22:28.594Z,9.10
2022-11-23T13:25:16.278Z,9.10
2022-11-23T13:27:46.693Z,9.10
2022-11-23T13:30:45.625Z,9.10
2022-11-23T13:33:37.847Z,9.10
2022-11-23T13:36:11.527Z,9.10
2022-11-23T13:38:43.555Z,9.00
2022-11-23T13:41:44.532Z,8.90
2022-11-23T13:44:14.012Z,8.80
2022-11-23T13:46:43.459Z,8.80
2022-11-23T13:49:31.497Z,8.70
2022-11-23T13:52:26.377Z,8.60
2022-11-23T13:54:56.990Z,8.60
2022-11-23T13:57:25.453Z,8.50
2022-11-23T13:59:53.579Z,8.40
2022-11-23T14:02:27.981Z,8.40
2022-11-23T14:05:29.212Z,8.40
2022-11-23T14:07:57.873Z,8.40
2022-11-23T14:10:26.570Z,8.30
2022-11-23T14:12:58.732Z,8.30
2022-11-23T14:15:30.025Z,8.20
2022-11-23T14:18:31.415Z,8.20
2022-11-23T14:21:08.898Z,8.20
2022-11-23T14:24:19.062Z,8.20
2022-11-23T14:27:38.929Z,8.10
2022-11-23T14:30:18.069Z,8.10
2022-11-23T14:33:03.884Z,8.00
2022-11-23T14:35:42.047Z,8.00
2022-11-23T14:38:44.479Z,8.00
2022-11-23T14:41:18.125Z,7.90
2022-11-23T14:43:48.189Z,7.90
2022-11-23T14:46:19.327Z,7.90
2022-11-23T14:48:48.138Z,7.90
2022-11-23T14:51:20.011Z,7.90
2022-11-23T14:53:51.303Z,7.80
2022-11-23T14:56:31.431Z,7.80
2022-11-23T14:59:04.094Z,7.70
2022-11-23T15:01:32.678Z,7.60
2022-11-23T15:04:07.627Z,7.60
2022-11-23T15:06:45.491Z,7.50
2022-11-23T15:09:23.636Z,7.50
2022-11-23T15:11:51.681Z,7.40
2022-11-23T15:14:22.254Z,7.40
2022-11-23T15:16:50.303Z,7.30
2022-11-23T15:19:20.073Z,7.30
2022-11-23T15:21:49.510Z,7.20
2022-11-23T15:24:26.031Z,7.20
2022-11-23T15:26:54.583Z,7.10
2022-11-23T15:29:37.279Z,7.10
2022-11-23T15:32:32.839Z,7.00
2022-11-23T15:35:04.492Z,7.00
2022-11-23T15:37:38.780Z,6.90
2022-11-23T15:40:13.433Z,6.80
2022-11-23T15:42:41.922Z,6.80
2022-11-23T15:45:34.292Z,6.70
2022-11-23T15:48:03.367Z,6.70
2022-11-23T15:50:34.235Z,6.60
2022-11-23T15:53:04.014Z,6.50
2022-11-23T15:55:32.206Z,6.50
2022-11-23T15:58:10.510Z,6.40
2022-11-23T16:00:38.734Z,6.40
2022-11-23T16:03:28.305Z,6.30
2022-11-23T16:06:15.634Z,6.30
2022-11-23T16:08:45.406Z,6.20
2022-11-23T16:11:32.483Z,6.10
2022-11-23T16:14:15.201Z,6.10
2022-11-23T16:16:46.340Z,6.00
2022-11-23T16:19:27.889Z,5.90
2022-11-23T16:22:02.620Z,5.90
2022-11-23T16:24:34.403Z,5.80
2022-11-23T16:27:03.244Z,5.80
2022-11-23T16:29:36.767Z,5.70
2022-11-23T16:32:07.325Z,5.70
2022-11-23T16:34:35.734Z,5.60
2022-11-23T16:37:04.883Z,5.60
2022-11-23T16:39:35.021Z,5.50
2022-11-23T16:42:03.019Z,5.50
2022-11-23T16:44:35.211Z,5.50
2022-11-23T16:47:24.897Z,5.40
2022-11-23T16:49:53.522Z,5.40
2022-11-23T16:52:22.744Z,5.30
2022-11-23T16:54:53.614Z,5.20
2022-11-23T16:57:28.795Z,5.20
2022-11-23T16:59:57.176Z,5.20
2022-11-23T17:02:25.260Z,5.20
2022-11-23T17:04:53.377Z,5.10
2022-11-23T17:07:21.499Z,5.10
2022-11-23T17:09:50.954Z,5.00
2022-11-23T17:12:20.588Z,5.00
2022-11-23T17:14:50.510Z,5.00
2022-11-23T17:17:22.045Z,5.00
2022-11-23T17:19:51.145Z,5.00
2022-11-23T17:22:20.499Z,5.10
2022-11-23T17:24:49.654Z,5.10
2022-11-23T17:27:22.891Z,5.10
2022-11-23T17:29:56.214Z,5.20
2022-11-23T17:32:24.373Z,5.20
2022-11-23T17:34:52.463Z,5.20
2022-11-23T17:37:23.354Z,5.10
2022-11-23T17:39:52.026Z,5.10
2022-11-23T17:42:21.753Z,5.10
2022-11-23T17:44:49.782Z,5.10
2022-11-23T17:47:25.103Z,5.10
2022-11-23T17:49:53.175Z,5.10
2022-11-23T17:52:21.419Z,5.10
2022-11-23T17:54:49.524Z,5.10
2022-11-23T17:57:20.084Z,5.20
2022-11-23T17:59:49.466Z,5.30
2022-11-23T18:02:19.280Z,5.40
2022-11-23T18:04:47.487Z,5.50
2022-11-23T18:07:16.988Z,5.50
2022-11-23T18:09:45.041Z,5.60
2022-11-23T18:12:13.111Z,5.60
2022-11-23T18:14:41.266Z,5.60
2022-11-23T18:17:10.702Z,5.70
2022-11-23T18:19:38.688Z,5.70
2022-11-23T18:22:06.677Z,5.70
2022-11-23T18:24:34.714Z,5.80
2022-11-23T18:27:02.740Z,5.80
2022-11-23T18:29:31.214Z,5.80
2022-11-23T18:31:59.565Z,5.90
2022-11-23T18:34:29.123Z,5.90
2022-11-23T18:36:57.257Z,6.00
2022-11-23T18:39:25.291Z,6.00
2022-11-23T18:41:53.295Z,6.00
2022-11-23T18:44:21.427Z,6.00
2022-11-23T18:46:49.629Z,6.10
2022-11-23T18:49:17.702Z,6.10
2022-11-23T18:51:47.079Z,6.20
2022-11-23T18:54:15.083Z,6.20
2022-11-23T18:56:43.094Z,6.20
2022-11-23T18:59:28.788Z,6.20
2022-11-23T19:01:59.219Z,6.20
2022-11-23T19:04:27.474Z,6.20
2022-11-23T19:06:57.407Z,6.20
2022-11-23T19:09:25.538Z,6.30
2022-11-23T19:11:53.536Z,6.30
2022-11-23T19:14:21.627Z,6.30
2022-11-23T19:16:49.670Z,6.30
2022-11-23T19:19:18.583Z,6.30
2022-11-23T19:21:47.022Z,6.30
2022-11-23T19:24:16.564Z,6.40
2022-11-23T19:26:44.560Z,6.30
2022-11-23T19:29:13.733Z,6.30
2022-11-23T19:31:41.879Z,6.30
2022-11-23T19:34:10.851Z,6.30
2022-11-23T19:36:40.648Z,6.30
2022-11-23T19:39:09.998Z,6.30
2022-11-23T19:41:39.375Z,6.40
2022-11-23T19:44:07.979Z,6.40
2022-11-23T19:46:36.048Z,6.30
2022-11-23T19:49:04.750Z,6.40
2022-11-23T19:51:32.770Z,6.40
2022-11-23T19:54:01.702Z,6.40
2022-11-23T19:56:30.406Z,6.30
2022-11-23T19:59:01.924Z,6.30
2022-11-23T20:01:32.517Z,6.30
2022-11-23T20:04:08.717Z,6.40
2022-11-23T20:06:38.674Z,6.40
2022-11-23T20:09:09.819Z,6.40
2022-11-23T20:11:39.625Z,6.30
2022-11-23T20:14:11.077Z,6.30
2022-11-23T20:16:39.538Z,6.30
2022-11-23T20:19:09.263Z,6.30
2022-11-23T20:21:38.141Z,6.30
2022-11-23T20:24:08.471Z,6.30
2022-11-23T20:26:37.226Z,6.30
2022-11-23T20:29:06.614Z,6.30
2022-11-23T20:31:37.221Z,6.30
2022-11-23T20:34:07.798Z,6.30
2022-11-23T20:36:38.466Z,6.30
2022-11-23T20:39:10.877Z,6.30
2022-11-23T20:41:39.742Z,6.30
2022-11-23T20:44:12.363Z,6.30
2022-11-23T20:49:31.075Z,6.30
2022-11-23T20:51:59.156Z,6.40
2022-11-23T20:54:27.241Z,6.30
2022-11-23T20:56:55.270Z,6.30
2022-11-23T20:59:23.948Z,6.40
2022-11-23T21:01:53.577Z,6.40
2022-11-23T21:04:21.671Z,6.40
2022-11-23T21:06:49.673Z,6.40
2022-11-23T21:09:18.120Z,6.40
2022-11-23T21:12:03.790Z,6.50
2022-11-23T21:14:32.922Z,6.50
2022-11-23T21:17:02.710Z,6.50
2022-11-23T21:19:32.694Z,6.50
2022-11-23T21:22:05.187Z,6.50
2022-11-23T21:24:35.090Z,6.50
2022-11-23T21:27:03.870Z,6.50
2022-11-23T21:29:32.246Z,6.50
2022-11-23T21:32:01.385Z,6.60
2022-11-23T21:34:32.053Z,6.60
2022-11-23T21:37:00.719Z,6.60
2022-11-23T21:39:30.955Z,6.60
2022-11-23T21:41:59.001Z,6.60
2022-11-23T21:44:27.105Z,6.50
2022-11-23T21:46:55.404Z,6.50
2022-11-23T21:49:23.694Z,6.60
2022-11-23T21:51:53.056Z,6.60
2022-11-23T21:54:21.264Z,6.60
2022-11-23T21:56:49.525Z,6.60
2022-11-23T21:59:17.543Z,6.60
2022-11-23T22:01:45.576Z,6.60
2022-11-23T22:04:15.620Z,6.60
2022-11-23T22:06:45.414Z,6.60
2022-11-23T22:09:15.194Z,6.60
2022-11-23T22:11:44.657Z,6.70
2022-11-23T22:14:14.668Z,6.70
2022-11-23T22:16:44.451Z,6.60
2022-11-23T22:19:13.760Z,6.70
2022-11-23T22:21:42.957Z,6.70
2022-11-23T22:24:14.857Z,6.60
2022-11-23T22:26:43.398Z,6.60
2022-11-23T22:29:11.853Z,6.70
2022-11-23T22:31:40.101Z,6.70
2022-11-23T22:34:11.246Z,6.70
2022-11-23T22:36:39.501Z,6.70
2022-11-23T22:39:08.703Z,6.70
2022-11-23T22:41:38.708Z,6.70
2022-11-23T22:44:09.796Z,6.70
2022-11-23T22:46:39.411Z,6.70
2022-11-23T22:49:07.621Z,6.60
2022-11-23T22:51:35.712Z,6.60
2022-11-23T22:54:03.708Z,6.60
2022-11-23T22:56:32.276Z,6.60
2022-11-23T22:59:02.274Z,6.60
2022-11-23T23:01:31.958Z,6.60
2022-11-23T23:04:02.380Z,6.60
2022-11-23T23:06:34.671Z,6.60
2022-11-23T23:09:03.645Z,6.60
2022-11-23T23:11:33.220Z,6.70
2022-11-23T23:14:02.721Z,6.70
2022-11-23T23:16:30.991Z,6.60
2022-11-23T23:18:59.702Z,6.70
2022-11-23T23:21:29.769Z,6.70
2022-11-23T23:24:00.053Z,6.70
2022-11-23T23:26:29.328Z,6.70
2022-11-23T23:28:58.537Z,6.70
2022-11-23T23:31:29.877Z,6.70
2022-11-23T23:33:58.132Z,6.70
2022-11-23T23:36:26.408Z,6.70
2022-11-23T23:38:54.693Z,6.70
2022-11-23T23:41:22.865Z,6.80
2022-11-23T23:43:50.950Z,6.80
2022-11-23T23:46:19.439Z,6.80
2022-11-23T23:48:49.014Z,6.80
2022-11-23T23:51:18.825Z,6.80
2022-11-23T23:53:48.421Z,6.70
2022-11-23T23:56:18.803Z,6.80
2022-11-23T23:58:46.947Z,6.80
